createdAt,value
2022-11-25T00:00:20.552Z,5.18
2022-11-25T00:02:27.346Z,5.19
2022-11-25T00:04:37.429Z,5.22
2022-11-25T00:06:46.908Z,5.26
2022-11-25T00:08:58.452Z,5.28
2022-11-25T00:11:09.165Z,5.28
2022-11-25T00:13:15.780Z,5.19
2022-11-25T00:15:25.307Z,5.20
2022-11-25T00:17:32.729Z,5.12
2022-11-25T00:19:39.461Z,5.09
2022-11-25T00:21:46.508Z,5.06
2022-11-25T00:23:56.484Z,4.98
2022-11-25T00:26:10.672Z,4.93
2022-11-25T00:28:17.647Z,4.86
2022-11-25T00:30:27.893Z,4.78
2022-11-25T00:32:34.671Z,4.80
2022-11-25T00:34:41.254Z,4.79
2022-11-25T00:36:48.996Z,4.82
2022-11-25T00:38:59.800Z,4.85
2022-11-25T00:41:24.153Z,4.85
2022-11-25T00:43:47.162Z,4.80
2022-11-25T00:45:57.243Z,4.83
2022-11-25T00:48:08.703Z,4.85
2022-11-25T00:50:16.520Z,4.81
2022-11-25T00:52:27.627Z,4.86
2022-11-25T00:54:34.675Z,4.92
2022-11-25T00:56:42.736Z,4.89
2022-11-25T00:58:49.752Z,4.99
2022-11-25T01:03:55.984Z,5.04
2022-11-25T01:06:06.543Z,5.11
2022-11-25T01:08:14.675Z,5.07
2022-11-25T01:10:21.559Z,5.10
2022-11-25T01:12:29.156Z,5.15
2022-11-25T01:14:37.611Z,5.12
2022-11-25T01:16:44.449Z,5.13
2022-11-25T01:18:55.494Z,5.09
2022-11-25T01:21:10.111Z,5.18
2022-11-25T01:23:16.861Z,5.18
2022-11-25T01:25:24.363Z,5.15
2022-11-25T01:27:30.995Z,5.17
2022-11-25T01:29:37.684Z,5.16
2022-11-25T01:31:46.706Z,5.19
2022-11-25T01:34:03.599Z,5.18
2022-11-25T01:36:14.556Z,5.20
2022-11-25T01:38:37.913Z,5.15
2022-11-25T01:40:44.767Z,5.11
2022-11-25T01:42:52.592Z,5.10
2022-11-25T01:45:37.687Z,5.09
2022-11-25T01:47:44.876Z,5.14
2022-11-25T01:50:12.905Z,5.12
2022-11-25T01:52:28.060Z,5.17
2022-11-25T01:54:45.699Z,5.21
2022-11-25T01:57:04.455Z,5.24
2022-11-25T01:59:12.841Z,5.22
2022-11-25T02:01:22.068Z,5.24
2022-11-25T02:03:39.991Z,5.21
2022-11-25T02:06:04.620Z,5.25
2022-11-25T02:08:13.830Z,5.25
2022-11-25T02:10:28.710Z,5.16
2022-11-25T02:12:40.237Z,5.15
2022-11-25T02:14:49.533Z,5.17
2022-11-25T02:16:56.856Z,5.15
2022-11-25T02:19:06.930Z,5.19
2022-11-25T02:21:23.645Z,5.21
2022-11-25T02:23:46.589Z,5.21
2022-11-25T02:25:57.908Z,5.19
2022-11-25T02:28:10.937Z,5.19
2022-11-25T02:30:18.255Z,5.23
2022-11-25T02:32:27.271Z,5.23
2022-11-25T02:34:34.109Z,5.23
2022-11-25T02:36:41.105Z,5.16
2022-11-25T02:38:54.069Z,5.15
2022-11-25T02:41:21.287Z,5.14
2022-11-25T02:43:35.748Z,5.10
2022-11-25T02:46:01.366Z,5.12
2022-11-25T02:48:10.459Z,5.03
2022-11-25T02:50:18.643Z,5.10
2022-11-25T02:52:25.270Z,5.12
2022-11-25T02:54:31.912Z,5.17
2022-11-25T02:56:44.871Z,5.21
2022-11-25T02:58:53.054Z,5.25
2022-11-25T03:01:00.028Z,5.23
2022-11-25T03:03:10.242Z,5.24
2022-11-25T03:05:17.134Z,5.27
2022-11-25T03:07:23.854Z,5.28
2022-11-25T03:09:32.523Z,5.28
2022-11-25T03:11:54.984Z,5.30
2022-11-25T03:14:06.729Z,5.27
2022-11-25T03:16:14.540Z,5.24
2022-11-25T03:18:23.984Z,5.28
2022-11-25T03:20:30.676Z,5.22
2022-11-25T03:22:38.737Z,5.16
2022-11-25T03:24:45.417Z,5.24
2022-11-25T03:26:52.124Z,5.23
2022-11-25T03:28:59.658Z,5.28
2022-11-25T03:31:14.332Z,5.26
2022-11-25T03:33:21.038Z,5.29
2022-11-25T03:35:28.537Z,5.35
2022-11-25T03:37:35.270Z,5.37
2022-11-25T03:39:42.126Z,5.38
2022-11-25T03:41:49.890Z,5.30
2022-11-25T03:43:59.092Z,5.30
2022-11-25T03:46:07.970Z,5.28
2022-11-25T03:48:18.304Z,5.28
2022-11-25T03:50:24.936Z,5.29
2022-11-25T03:52:33.958Z,5.30
2022-11-25T03:54:41.823Z,5.31
2022-11-25T03:56:57.164Z,5.35
2022-11-25T03:59:03.855Z,5.34
2022-11-25T04:01:11.704Z,5.37
2022-11-25T04:03:21.547Z,5.15
2022-11-25T04:05:28.824Z,5.45
2022-11-25T04:07:40.355Z,5.53
2022-11-25T04:09:48.253Z,5.55
2022-11-25T04:12:15.315Z,5.58
2022-11-25T04:14:31.089Z,5.59
2022-11-25T04:16:38.383Z,5.55
2022-11-25T04:18:47.842Z,5.60
2022-11-25T04:20:55.547Z,5.63
2022-11-25T04:23:03.400Z,5.56
2022-11-25T04:25:12.736Z,5.53
2022-11-25T04:27:20.672Z,5.59
2022-11-25T04:29:28.507Z,5.62
2022-11-25T04:31:38.247Z,5.56
2022-11-25T04:33:52.555Z,5.48
2022-11-25T04:36:00.682Z,5.59
2022-11-25T04:38:08.791Z,5.60
2022-11-25T04:40:18.724Z,5.62
2022-11-25T04:42:39.727Z,5.65
2022-11-25T04:45:21.003Z,5.73
2022-11-25T04:47:20.753Z,5.73
2022-11-25T04:49:30.273Z,5.71
2022-11-25T04:51:37.141Z,5.65
2022-11-25T04:53:47.917Z,5.65
2022-11-25T04:55:55.379Z,5.61
2022-11-25T04:58:03.928Z,5.64
2022-11-25T05:00:12.767Z,5.60
2022-11-25T05:02:22.821Z,5.63
2022-11-25T05:04:59.653Z,5.62
2022-11-25T05:07:10.233Z,5.67
2022-11-25T05:09:16.963Z,5.72
2022-11-25T05:11:26.528Z,5.78
2022-11-25T05:13:34.073Z,5.80
2022-11-25T05:15:40.716Z,5.85
2022-11-25T05:17:48.605Z,5.90
2022-11-25T05:20:04.923Z,5.94
2022-11-25T05:22:14.765Z,5.97
2022-11-25T05:24:22.530Z,5.99
2022-11-25T05:26:32.869Z,6.02
2022-11-25T05:28:40.331Z,6.01
2022-11-25T05:30:47.720Z,6.01
2022-11-25T05:32:57.438Z,6.03
2022-11-25T05:35:07.814Z,6.08
2022-11-25T05:37:22.721Z,6.07
2022-11-25T05:39:36.802Z,6.05
2022-11-25T05:42:09.605Z,6.08
2022-11-25T05:44:22.624Z,6.12
2022-11-25T05:46:32.218Z,6.15
2022-11-25T05:48:39.016Z,6.10
2022-11-25T05:50:48.981Z,6.09
2022-11-25T05:53:03.943Z,6.02
2022-11-25T05:55:12.024Z,6.03
2022-11-25T05:57:18.747Z,6.02
2022-11-25T05:59:29.587Z,6.03
2022-11-25T06:01:45.328Z,6.05
2022-11-25T06:03:52.402Z,6.06
2022-11-25T06:06:06.005Z,6.08
2022-11-25T06:08:13.504Z,6.12
2022-11-25T06:10:21.665Z,6.18
2022-11-25T06:12:29.778Z,6.21
2022-11-25T06:14:36.592Z,6.27
2022-11-25T06:16:44.496Z,6.24
2022-11-25T06:19:30.896Z,6.27
2022-11-25T06:21:40.708Z,6.30
2022-11-25T06:23:47.971Z,6.25
2022-11-25T06:25:58.755Z,6.30
2022-11-25T06:28:12.804Z,6.25
2022-11-25T06:30:25.053Z,6.26
2022-11-25T06:33:05.922Z,6.25
2022-11-25T06:35:13.506Z,6.24
2022-11-25T06:37:32.595Z,6.29
2022-11-25T06:39:41.930Z,6.34
2022-11-25T06:41:48.639Z,6.34
2022-11-25T06:43:55.324Z,6.36
2022-11-25T06:46:08.160Z,6.36
2022-11-25T06:48:14.782Z,6.32
2022-11-25T06:50:22.062Z,6.35
2022-11-25T06:52:33.929Z,6.36
2022-11-25T06:54:41.731Z,6.40
2022-11-25T06:56:51.735Z,6.44
2022-11-25T06:58:59.553Z,6.47
2022-11-25T07:01:16.774Z,6.45
2022-11-25T07:03:24.011Z,6.46
2022-11-25T07:05:31.653Z,6.51
2022-11-25T07:07:41.186Z,6.57
2022-11-25T07:09:48.113Z,6.68
2022-11-25T07:11:55.582Z,6.72
2022-11-25T07:14:07.779Z,6.56
2022-11-25T07:16:15.573Z,6.80
2022-11-25T07:18:23.527Z,6.85
2022-11-25T07:20:30.445Z,6.93
2022-11-25T07:22:37.082Z,6.96
2022-11-25T07:24:47.401Z,7.00
2022-11-25T07:26:54.005Z,6.98
2022-11-25T07:29:23.529Z,7.02
2022-11-25T07:31:39.194Z,7.05
2022-11-25T07:33:46.860Z,7.08
2022-11-25T07:35:53.420Z,7.11
2022-11-25T07:38:00.873Z,7.16
2022-11-25T07:40:14.192Z,7.18
2022-11-25T07:42:20.791Z,7.23
2022-11-25T07:44:28.659Z,7.31
2022-11-25T07:46:56.934Z,7.33
2022-11-25T07:49:07.827Z,7.38
2022-11-25T07:51:20.426Z,7.43
2022-11-25T07:53:27.044Z,7.46
2022-11-25T07:55:37.829Z,7.41
2022-11-25T07:57:45.302Z,7.45
2022-11-25T07:59:52.111Z,7.51
2022-11-25T08:01:59.645Z,7.57
2022-11-25T08:04:09.702Z,7.63
2022-11-25T08:06:19.792Z,7.66
2022-11-25T08:08:26.473Z,7.67
2022-11-25T08:10:36.826Z,7.68
2022-11-25T08:12:43.527Z,7.72
2022-11-25T08:14:50.261Z,7.73
2022-11-25T08:16:58.008Z,7.69
2022-11-25T08:19:07.860Z,7.73
2022-11-25T08:21:18.485Z,7.74
2022-11-25T08:23:25.972Z,7.75
2022-11-25T08:25:32.984Z,7.77
2022-11-25T08:27:42.630Z,7.79
2022-11-25T08:29:50.354Z,7.81
2022-11-25T08:31:57.419Z,7.85
2022-11-25T08:34:07.713Z,7.92
2022-11-25T08:36:17.596Z,8.00
2022-11-25T08:38:24.951Z,8.07
2022-11-25T08:40:31.892Z,8.12
2022-11-25T08:42:42.212Z,8.13
2022-11-25T08:44:48.924Z,8.13
2022-11-25T08:46:55.897Z,8.15
2022-11-25T08:49:03.992Z,8.18
2022-11-25T08:51:18.095Z,8.18
2022-11-25T08:53:25.852Z,8.19
2022-11-25T08:55:33.625Z,8.25
2022-11-25T08:57:43.268Z,8.31
2022-11-25T08:59:50.189Z,8.36
2022-11-25T09:01:58.522Z,8.41
2022-11-25T09:04:08.508Z,8.48
2022-11-25T09:06:16.173Z,8.56
2022-11-25T09:08:24.167Z,8.64
2022-11-25T09:10:31.249Z,8.61
2022-11-25T09:12:38.491Z,8.60
2022-11-25T09:14:48.888Z,8.63
2022-11-25T09:16:57.235Z,8.66
2022-11-25T09:19:05.554Z,8.72
2022-11-25T09:21:18.051Z,8.83
2022-11-25T09:23:25.843Z,8.91
2022-11-25T09:25:33.471Z,8.94
2022-11-25T09:27:41.258Z,8.98
2022-11-25T09:29:50.679Z,9.04
2022-11-25T09:31:57.415Z,9.06
2022-11-25T09:34:10.045Z,9.11
2022-11-25T09:36:20.531Z,9.15
2022-11-25T09:38:27.355Z,9.18
2022-11-25T09:40:46.648Z,9.15
2022-11-25T09:43:25.806Z,9.13
2022-11-25T09:46:08.764Z,9.09
2022-11-25T09:48:41.747Z,9.16
2022-11-25T09:51:07.739Z,9.18
2022-11-25T09:53:40.140Z,9.24
2022-11-25T09:56:01.190Z,9.30
2022-11-25T09:58:35.866Z,9.36
2022-11-25T10:00:49.854Z,9.35
2022-11-25T10:03:13.006Z,9.39
2022-11-25T10:05:28.666Z,9.40
2022-11-25T10:07:44.757Z,9.53
2022-11-25T10:09:52.464Z,9.58
2022-11-25T10:12:08.469Z,9.58
2022-11-25T10:14:29.496Z,9.52
2022-11-25T10:17:08.135Z,9.55
2022-11-25T10:19:55.398Z,9.52
2022-11-25T10:22:27.261Z,9.65
2022-11-25T10:24:38.441Z,9.70
2022-11-25T10:26:56.516Z,9.76
2022-11-25T10:29:26.054Z,9.68
2022-11-25T10:31:42.521Z,9.84
2022-11-25T10:33:53.148Z,9.88
2022-11-25T10:36:11.068Z,9.90
2022-11-25T10:38:29.229Z,9.80
2022-11-25T10:40:36.034Z,9.76
2022-11-25T10:42:43.632Z,9.75
2022-11-25T10:44:50.384Z,9.76
2022-11-25T10:47:35.873Z,9.79
2022-11-25T10:50:04.017Z,9.81
2022-11-25T10:52:17.054Z,9.81
2022-11-25T10:54:28.293Z,9.83
2022-11-25T10:56:49.035Z,9.58
2022-11-25T10:58:58.100Z,9.81
2022-11-25T11:01:19.790Z,9.73
2022-11-25T11:03:30.658Z,9.64
2022-11-25T11:05:43.707Z,9.62
2022-11-25T11:08:20.091Z,9.66
2022-11-25T11:10:29.692Z,9.70
2022-11-25T11:12:36.604Z,9.74
2022-11-25T11:14:43.772Z,9.82
2022-11-25T11:16:59.933Z,9.77
2022-11-25T11:19:25.955Z,9.68
2022-11-25T11:21:38.315Z,9.69
2022-11-25T11:23:53.966Z,9.78
2022-11-25T11:26:06.949Z,9.80
2022-11-25T11:28:41.738Z,9.78
2022-11-25T11:31:04.326Z,9.76
2022-11-25T11:33:36.004Z,9.77
2022-11-25T11:36:04.230Z,9.84
2022-11-25T11:38:35.182Z,9.89
2022-11-25T11:40:46.812Z,9.92
2022-11-25T11:43:15.095Z,9.98
2022-11-25T11:46:00.970Z,10.02
2022-11-25T11:48:28.717Z,10.10
2022-11-25T11:50:43.197Z,10.13
2022-11-25T11:53:03.967Z,10.17
2022-11-25T11:55:39.585Z,10.10
2022-11-25T11:58:07.198Z,9.60
2022-11-25T12:00:18.304Z,9.64
2022-11-25T12:02:46.860Z,9.63
2022-11-25T12:05:14.752Z,9.69
2022-11-25T12:07:33.283Z,9.77
2022-11-25T12:10:00.025Z,9.74
2022-11-25T12:12:22.284Z,9.69
2022-11-25T12:14:43.250Z,9.75
2022-11-25T12:17:00.467Z,9.71
2022-11-25T12:19:24.166Z,9.49
2022-11-25T12:21:52.828Z,9.61
2022-11-25T12:24:09.670Z,9.65
2022-11-25T12:26:32.837Z,9.61
2022-11-25T12:28:49.076Z,9.66
2022-11-25T12:31:23.230Z,9.74
2022-11-25T12:33:50.062Z,9.81
2022-11-25T12:36:09.869Z,9.76
2022-11-25T12:38:41.390Z,9.73
2022-11-25T12:41:04.334Z,9.66
2022-11-25T12:43:35.575Z,9.59
2022-11-25T12:45:47.388Z,9.51
2022-11-25T12:47:56.594Z,9.45
2022-11-25T12:50:04.050Z,9.48
2022-11-25T12:52:44.195Z,9.50
2022-11-25T12:55:11.916Z,9.51
2022-11-25T12:58:20.108Z,9.50
2022-11-25T13:00:58.124Z,9.47
2022-11-25T13:04:04.991Z,9.42
2022-11-25T13:06:59.650Z,9.44
2022-11-25T13:09:32.974Z,9.40
2022-11-25T13:12:15.001Z,9.39
2022-11-25T13:14:43.447Z,9.44
2022-11-25T13:16:58.184Z,9.50
2022-11-25T13:19:12.413Z,9.54
2022-11-25T13:21:24.240Z,9.57
2022-11-25T13:23:52.301Z,9.60
2022-11-25T13:26:53.589Z,9.67
2022-11-25T13:29:03.751Z,9.69
2022-11-25T13:31:28.163Z,9.66
2022-11-25T13:34:29.057Z,9.64
2022-11-25T13:36:52.036Z,9.69
2022-11-25T13:39:09.936Z,9.67
2022-11-25T13:41:40.392Z,9.64
2022-11-25T13:44:03.785Z,9.57
2022-11-25T13:46:10.802Z,9.52
2022-11-25T13:48:23.939Z,9.47
2022-11-25T13:50:55.354Z,9.41
2022-11-25T13:53:07.575Z,9.40
2022-11-25T13:55:35.040Z,9.39
2022-11-25T13:57:48.415Z,9.38
2022-11-25T14:00:01.007Z,9.34
2022-11-25T14:02:45.181Z,9.37
2022-11-25T14:05:07.897Z,9.40
2022-11-25T14:07:35.528Z,9.44
2022-11-25T14:10:14.001Z,9.41
2022-11-25T14:12:52.228Z,9.39
2022-11-25T14:16:44.046Z,9.41
2022-11-25T14:19:52.476Z,9.47
2022-11-25T14:22:35.986Z,9.54
2022-11-25T14:24:49.836Z,9.54
2022-11-25T14:27:00.715Z,9.67
2022-11-25T14:29:23.648Z,9.76
2022-11-25T14:31:44.645Z,9.82
2022-11-25T14:34:00.105Z,9.90
2022-11-25T14:36:17.574Z,9.92
2022-11-25T14:38:40.145Z,9.94
2022-11-25T14:40:55.712Z,9.93
2022-11-25T14:43:10.979Z,9.93
2022-11-25T14:45:29.719Z,9.94
2022-11-25T14:47:39.229Z,9.98
2022-11-25T14:50:11.817Z,10.01
2022-11-25T14:52:27.042Z,10.01
2022-11-25T14:54:36.673Z,10.04
2022-11-25T14:56:44.310Z,10.06
2022-11-25T14:58:56.123Z,9.83
2022-11-25T15:01:08.385Z,10.06
2022-11-25T15:03:23.433Z,10.05
2022-11-25T15:05:38.657Z,10.04
2022-11-25T15:07:47.158Z,10.06
2022-11-25T15:09:56.722Z,10.05
2022-11-25T15:12:09.019Z,10.05
2022-11-25T15:14:29.165Z,10.06
2022-11-25T15:16:43.694Z,9.98
2022-11-25T15:18:55.204Z,9.99
2022-11-25T15:21:09.399Z,9.97
2022-11-25T15:23:32.144Z,9.89
2022-11-25T15:25:53.504Z,10.03
2022-11-25T15:28:00.064Z,10.04
2022-11-25T15:30:24.023Z,10.05
2022-11-25T15:32:38.152Z,10.06
2022-11-25T15:34:47.357Z,10.07
2022-11-25T15:36:54.951Z,10.08
2022-11-25T15:39:19.450Z,10.08
2022-11-25T15:41:39.683Z,10.09
2022-11-25T15:43:53.222Z,10.08
2022-11-25T15:46:06.382Z,10.10
2022-11-25T15:48:24.381Z,10.12
2022-11-25T15:50:35.357Z,10.14
2022-11-25T15:52:49.923Z,10.15
2022-11-25T15:55:06.595Z,10.17
2022-11-25T15:57:29.914Z,10.19
2022-11-25T15:59:50.584Z,10.19
2022-11-25T16:01:57.692Z,10.10
2022-11-25T16:04:24.221Z,10.04
2022-11-25T16:06:33.248Z,10.12
2022-11-25T16:08:42.186Z,10.12
2022-11-25T16:11:03.490Z,10.14
2022-11-25T16:13:42.691Z,10.12
2022-11-25T16:15:57.284Z,10.15
2022-11-25T16:18:32.481Z,10.18
2022-11-25T16:20:32.476Z,9.54
2022-11-25T16:22:40.843Z,10.11
2022-11-25T16:25:01.861Z,10.08
2022-11-25T16:27:25.599Z,10.05
2022-11-25T16:29:41.085Z,10.04
2022-11-25T16:31:48.251Z,10.01
2022-11-25T16:33:59.566Z,9.99
2022-11-25T16:36:09.489Z,9.96
2022-11-25T16:38:16.351Z,9.91
2022-11-25T16:40:24.729Z,9.93
2022-11-25T16:42:37.251Z,9.93
2022-11-25T16:44:52.471Z,9.93
2022-11-25T16:47:01.123Z,9.92
2022-11-25T16:49:16.786Z,9.89
2022-11-25T16:51:26.911Z,9.87
2022-11-25T16:53:34.410Z,9.87
2022-11-25T16:55:45.691Z,9.89
2022-11-25T16:57:54.540Z,9.90
2022-11-25T17:00:08.974Z,9.89
2022-11-25T17:02:21.859Z,9.89
2022-11-25T17:04:28.619Z,9.90
2022-11-25T17:06:37.460Z,9.88
2022-11-25T17:08:44.819Z,9.88
2022-11-25T17:10:52.964Z,9.89
2022-11-25T17:13:01.011Z,9.88
2022-11-25T17:15:19.980Z,9.85
2022-11-25T17:17:30.377Z,9.85
2022-11-25T17:19:38.308Z,9.78
2022-11-25T17:21:45.522Z,9.74
2022-11-25T17:23:55.170Z,9.68
2022-11-25T17:26:03.682Z,9.67
2022-11-25T17:28:19.335Z,9.68
2022-11-25T17:30:32.645Z,9.70
2022-11-25T17:32:40.176Z,9.74
2022-11-25T17:34:47.007Z,9.75
2022-11-25T17:36:53.598Z,9.78
2022-11-25T17:39:01.379Z,9.78
2022-11-25T17:41:16.149Z,9.77
2022-11-25T17:43:24.407Z,9.73
2022-11-25T17:45:34.970Z,9.70
2022-11-25T17:47:41.757Z,9.69
2022-11-25T17:49:49.704Z,9.69
2022-11-25T17:51:57.256Z,9.66
2022-11-25T17:54:03.919Z,9.64
2022-11-25T17:56:27.152Z,9.58
2022-11-25T17:58:34.631Z,9.55
2022-11-25T18:00:46.739Z,9.53
2022-11-25T18:02:53.910Z,9.50
2022-11-25T18:05:03.291Z,9.46
2022-11-25T18:07:11.015Z,9.47
2022-11-25T18:09:17.654Z,9.50
2022-11-25T18:11:25.259Z,9.53
2022-11-25T18:13:42.656Z,9.52
2022-11-25T18:15:52.353Z,9.52
2022-11-25T18:18:06.070Z,9.50
2022-11-25T18:20:22.671Z,9.35
2022-11-25T18:22:30.816Z,9.50
2022-11-25T18:24:38.612Z,9.50
2022-11-25T18:26:50.377Z,9.53
2022-11-25T18:28:59.904Z,9.51
2022-11-25T18:31:15.909Z,9.49
2022-11-25T18:33:23.242Z,9.50
2022-11-25T18:35:36.790Z,9.49
2022-11-25T18:37:44.382Z,9.48
2022-11-25T18:39:52.437Z,9.49
2022-11-25T18:42:00.160Z,9.49
2022-11-25T18:44:25.831Z,8.62
2022-11-25T18:46:41.228Z,9.54
2022-11-25T18:48:47.819Z,9.53
2022-11-25T18:50:58.065Z,9.51
2022-11-25T18:53:06.547Z,9.50
2022-11-25T18:55:15.638Z,9.51
2022-11-25T18:57:23.756Z,9.48
2022-11-25T18:59:37.475Z,9.46
2022-11-25T19:01:49.998Z,9.43
2022-11-25T19:03:58.037Z,9.37
2022-11-25T19:06:06.578Z,9.33
2022-11-25T19:08:13.220Z,9.38
2022-11-25T19:10:22.191Z,9.35
2022-11-25T19:12:29.694Z,9.30
2022-11-25T19:14:42.601Z,9.27
2022-11-25T19:16:53.101Z,9.17
2022-11-25T19:18:59.767Z,9.12
2022-11-25T19:21:07.946Z,9.07
2022-11-25T19:23:23.163Z,9.03
2022-11-25T19:25:29.952Z,9.01
2022-11-25T19:27:43.691Z,8.97
2022-11-25T19:29:51.563Z,8.91
2022-11-25T19:32:08.565Z,8.88
2022-11-25T19:34:30.090Z,8.82
2022-11-25T19:36:37.957Z,8.81
2022-11-25T19:38:44.561Z,8.77
2022-11-25T19:40:51.687Z,8.77
2022-11-25T19:42:59.523Z,8.77
2022-11-25T19:45:08.884Z,8.79
2022-11-25T19:47:25.205Z,8.78
2022-11-25T19:49:32.686Z,8.79
2022-11-25T19:51:39.503Z,8.72
2022-11-25T19:53:46.118Z,8.74
2022-11-25T19:55:53.552Z,8.76
2022-11-25T19:58:00.653Z,8.71
2022-11-25T20:00:11.275Z,8.73
2022-11-25T20:02:27.055Z,8.71
2022-11-25T20:04:33.774Z,8.71
2022-11-25T20:06:40.531Z,8.73
2022-11-25T20:08:49.963Z,8.79
2022-11-25T20:10:58.563Z,8.82
2022-11-25T20:13:10.432Z,8.87
2022-11-25T20:15:18.736Z,8.89
2022-11-25T20:17:33.943Z,8.90
2022-11-25T20:19:41.152Z,8.89
2022-11-25T20:21:49.953Z,8.86
2022-11-25T20:23:58.019Z,8.85
2022-11-25T20:26:06.577Z,8.78
2022-11-25T20:28:22.167Z,8.75
2022-11-25T20:30:31.966Z,8.72
2022-11-25T20:32:41.805Z,8.64
2022-11-25T20:34:50.012Z,8.65
2022-11-25T20:36:56.879Z,8.65
2022-11-25T20:39:06.645Z,8.62
2022-11-25T20:41:16.523Z,8.61
2022-11-25T20:43:33.389Z,8.55
2022-11-25T20:45:40.391Z,8.52
2022-11-25T20:47:53.135Z,8.58
2022-11-25T20:49:59.853Z,8.65
2022-11-25T20:52:09.474Z,8.69
2022-11-25T20:54:17.990Z,8.73
2022-11-25T20:56:29.868Z,8.56
2022-11-25T20:58:37.248Z,8.71
2022-11-25T21:00:44.966Z,8.64
2022-11-25T21:02:55.923Z,8.68
2022-11-25T21:05:03.563Z,8.70
2022-11-25T21:07:18.144Z,8.70
2022-11-25T21:09:34.748Z,8.75
2022-11-25T21:11:41.504Z,8.75
2022-11-25T21:13:50.021Z,8.74
2022-11-25T21:15:57.802Z,8.71
2022-11-25T21:18:07.742Z,8.71
2022-11-25T21:20:19.511Z,8.71
2022-11-25T21:22:26.507Z,8.73
2022-11-25T21:24:37.958Z,8.77
2022-11-25T21:26:45.839Z,8.82
2022-11-25T21:28:56.128Z,8.86
2022-11-25T21:31:08.397Z,8.91
2022-11-25T21:33:22.207Z,8.96
2022-11-25T21:35:35.672Z,9.01
2022-11-25T21:37:44.731Z,9.04
2022-11-25T21:39:52.538Z,9.06
2022-11-25T21:42:06.256Z,9.10
2022-11-25T21:44:27.291Z,9.15
2022-11-25T21:46:34.758Z,9.21
2022-11-25T21:48:44.559Z,9.22
2022-11-25T21:50:51.895Z,9.25
2022-11-25T21:53:01.148Z,9.27
2022-11-25T21:55:11.968Z,9.28
2022-11-25T21:57:23.196Z,9.31
2022-11-25T21:59:34.019Z,9.33
2022-11-25T22:01:41.076Z,9.33
2022-11-25T22:03:50.485Z,9.33
2022-11-25T22:05:58.927Z,9.36
2022-11-25T22:08:07.806Z,9.35
2022-11-25T22:10:17.601Z,9.36
2022-11-25T22:12:36.756Z,9.37
2022-11-25T22:14:47.923Z,9.40
2022-11-25T22:16:55.398Z,9.43
2022-11-25T22:19:06.710Z,9.42
2022-11-25T22:21:16.953Z,9.44
2022-11-25T22:23:25.405Z,9.44
2022-11-25T22:25:36.113Z,9.43
2022-11-25T22:27:42.921Z,9.41
2022-11-25T22:29:50.349Z,9.42
2022-11-25T22:31:58.043Z,9.40
2022-11-25T22:34:21.408Z,9.42
2022-11-25T22:36:39.956Z,9.40
2022-11-25T22:38:47.389Z,9.41
2022-11-25T22:40:59.513Z,9.40
2022-11-25T22:43:07.186Z,9.38
2022-11-25T22:45:27.374Z,9.15
2022-11-25T22:47:42.650Z,9.28
2022-11-25T22:49:55.127Z,9.18
2022-11-25T22:52:03.845Z,9.07
2022-11-25T22:54:15.211Z,8.98
2022-11-25T22:56:23.300Z,8.90
2022-11-25T22:58:31.865Z,8.83
2022-11-25T23:00:43.210Z,8.70
2022-11-25T23:02:52.512Z,8.61
2022-11-25T23:05:03.489Z,8.47
2022-11-25T23:07:15.241Z,8.40
2022-11-25T23:09:23.161Z,8.34
2022-11-25T23:11:32.023Z,8.27
2022-11-25T23:13:41.517Z,8.24
2022-11-25T23:15:53.415Z,8.22
2022-11-25T23:18:05.996Z,8.07
2022-11-25T23:20:23.855Z,8.26
2022-11-25T23:22:30.423Z,8.33
2022-11-25T23:24:38.276Z,8.38
2022-11-25T23:26:45.680Z,8.41
2022-11-25T23:28:52.787Z,8.41
2022-11-25T23:31:04.123Z,8.42
2022-11-25T23:33:25.586Z,8.45
2022-11-25T23:35:40.680Z,8.31
2022-11-25T23:37:57.796Z,8.33
2022-11-25T23:40:06.077Z,8.27
2022-11-25T23:42:20.946Z,8.23
2022-11-25T23:44:31.846Z,8.14
2022-11-25T23:46:40.406Z,8.03
2022-11-25T23:48:58.899Z,8.00
2022-11-25T23:51:11.334Z,7.96
2022-11-25T23:53:28.244Z,7.94
2022-11-25T23:55:40.458Z,7.92
2022-11-25T23:57:51.294Z,7.87
2022-11-25T23:59:58.209Z,7.83
